Time;durP1;ratioP1;P1;durP2;ratioP2;P2;SDS_P1;SDS_P2;PMS_P1;PMS_P2;Temp;Humidity;BMP_temperature;BMP_pressure;BME280_temperature;BME280_humidity;BME280_pressure;Samples;Min_cycle;Max_cycle;Signal;HPM_P1;HPM_P2
2022/10/08 00:01:10;;;;;;;8.10;2.50;;;;;;;;;;2441024;57;21080;-82
2022/10/08 00:03:37;;;;;;;12.32;3.42;;;;;;;;;;2440837;56;21083;-81
2022/10/08 00:06:06;;;;;;;8.05;2.40;;;;;;;;;;2221311;61;21076;-82
2022/10/08 00:08:35;;;;;;;11.23;2.55;;;;;;;;;;2440814;57;21147;-82
2022/10/08 00:11:05;;;;;;;10.95;2.75;;;;;;;;;;2440784;57;21096;-82
2022/10/08 00:13:39;;;;;;;5.62;2.55;;;;;;;;;;2440845;57;21184;-82
2022/10/08 00:16:07;;;;;;;9.40;2.70;;;;;;;;;;2441008;57;21167;-82
2022/10/08 00:18:34;;;;;;;10.15;2.80;;;;;;;;;;2221108;61;21087;-82
2022/10/08 00:21:05;;;;;;;12.32;3.08;;;;;;;;;;2220857;61;21579;-82
2022/10/08 00:23:33;;;;;;;11.07;3.00;;;;;;;;;;2221394;61;21076;-82
2022/10/08 00:26:02;;;;;;;10.68;3.00;;;;;;;;;;2441350;57;21091;-83
2022/10/08 00:28:29;;;;;;;13.10;3.28;;;;;;;;;;2221369;61;21151;-82
2022/10/08 00:30:56;;;;;;;4.60;2.40;;;;;;;;;;2221206;61;21084;-82
2022/10/08 00:33:23;;;;;;;7.37;2.60;;;;;;;;;;2440894;57;21164;-82
2022/10/08 00:35:50;;;;;;;6.75;2.35;;;;;;;;;;2221265;61;21166;-82
2022/10/08 00:38:17;;;;;;;8.15;2.53;;;;;;;;;;2440961;57;22185;-83
2022/10/08 00:40:45;;;;;;;9.85;2.90;;;;;;;;;;2440810;57;21104;-82
2022/10/08 00:43:14;;;;;;;13.13;3.17;;;;;;;;;;2440916;57;21096;-83
2022/10/08 00:45:41;;;;;;;9.50;2.87;;;;;;;;;;2441013;56;21100;-82
2022/10/08 00:48:11;;;;;;;9.85;3.20;;;;;;;;;;2221210;61;21068;-83
2022/10/08 00:50:39;;;;;;;11.15;2.90;;;;;;;;;;2440656;57;21084;-82
2022/10/08 00:53:06;;;;;;;7.78;2.70;;;;;;;;;;2440873;57;21068;-82
2022/10/08 00:55:35;;;;;;;14.93;3.00;;;;;;;;;;2221111;61;21096;-83
2022/10/08 00:58:05;;;;;;;15.23;3.10;;;;;;;;;;2221067;61;21603;-83
2022/10/08 01:00:32;;;;;;;12.20;2.97;;;;;;;;;;2221267;61;21156;-83
2022/10/08 01:02:59;;;;;;;9.20;3.25;;;;;;;;;;2440951;56;21084;-83
2022/10/08 01:05:30;;;;;;;10.20;3.12;;;;;;;;;;2221129;61;21185;-83
2022/10/08 01:07:59;;;;;;;6.87;3.35;;;;;;;;;;2441265;57;21119;-85
2022/10/08 01:10:32;;;;;;;11.70;3.08;;;;;;;;;;2440676;57;21147;-83
2022/10/08 01:13:10;;;;;;;9.63;2.80;;;;;;;;;;2221659;61;21140;-83
2022/10/08 01:15:42;;;;;;;6.12;2.20;;;;;;;;;;2221379;61;21083;-83
2022/10/08 01:18:13;;;;;;;9.63;2.80;;;;;;;;;;2221147;61;21152;-83
2022/10/08 01:20:46;;;;;;;10.70;3.17;;;;;;;;;;2221168;61;21706;-83
2022/10/08 01:23:32;;;;;;;10.35;3.28;;;;;;;;;;2221521;61;21155;-83
2022/10/08 01:26:06;;;;;;;10.02;2.65;;;;;;;;;;2221347;61;21152;-83
2022/10/08 01:28:35;;;;;;;12.05;3.83;;;;;;;;;;2221234;61;21099;-83
2022/10/08 01:31:05;;;;;;;9.30;3.35;;;;;;;;;;2441077;56;21095;-83
2022/10/08 01:33:36;;;;;;;9.30;3.00;;;;;;;;;;2221456;61;21183;-83
2022/10/08 01:36:04;;;;;;;10.23;2.72;;;;;;;;;;2221382;61;21176;-83
2022/10/08 01:38:34;;;;;;;9.80;2.90;;;;;;;;;;2221464;61;21095;-83
2022/10/08 01:41:03;;;;;;;11.98;3.53;;;;;;;;;;2220925;61;21143;-83
2022/10/08 01:43:32;;;;;;;13.60;3.10;;;;;;;;;;2221215;61;21132;-83
2022/10/08 01:46:01;;;;;;;15.60;3.53;;;;;;;;;;2220965;61;21072;-83
2022/10/08 01:48:30;;;;;;;12.00;2.75;;;;;;;;;;2221342;61;21099;-85
2022/10/08 01:51:00;;;;;;;16.65;3.45;;;;;;;;;;2220798;61;21072;-83
2022/10/08 01:53:32;;;;;;;9.68;3.60;;;;;;;;;;2441045;57;21103;-83
2022/10/08 01:56:01;;;;;;;10.82;3.15;;;;;;;;;;2441065;57;21148;-83
2022/10/08 01:58:33;;;;;;;12.10;3.42;;;;;;;;;;2441086;57;21773;-83
2022/10/08 02:01:04;;;;;;;6.93;2.60;;;;;;;;;;2440507;57;21083;-83
2022/10/08 02:03:31;;;;;;;11.77;3.85;;;;;;;;;;2221244;61;21111;-84
2022/10/08 02:05:59;;;;;;;13.70;3.22;;;;;;;;;;2221144;61;21219;-83
2022/10/08 02:08:27;;;;;;;9.68;2.67;;;;;;;;;;2221349;61;21087;-84
2022/10/08 02:10:54;;;;;;;14.20;3.30;;;;;;;;;;2220835;61;21483;-83
2022/10/08 02:13:21;;;;;;;5.43;2.17;;;;;;;;;;2221140;61;21667;-83
2022/10/08 02:15:52;;;;;;;8.07;2.53;;;;;;;;;;2221247;61;21144;-84
2022/10/08 02:18:22;;;;;;;6.45;2.75;;;;;;;;;;2221115;61;21083;-83
2022/10/08 02:20:52;;;;;;;11.82;3.03;;;;;;;;;;2440456;57;21083;-83
2022/10/08 02:23:22;;;;;;;8.55;2.72;;;;;;;;;;2440913;56;21127;-84
2022/10/08 02:25:51;;;;;;;12.10;3.00;;;;;;;;;;2221162;61;21143;-83
2022/10/08 02:28:20;;;;;;;10.05;2.50;;;;;;;;;;2221259;61;21076;-83
2022/10/08 02:30:48;;;;;;;12.15;2.53;;;;;;;;;;2439706;57;21100;-82
2022/10/08 02:33:21;;;;;;;12.77;3.33;;;;;;;;;;2439590;57;21083;-83
2022/10/08 02:35:51;;;;;;;14.95;3.53;;;;;;;;;;2221390;61;21135;-83
2022/10/08 02:38:19;;;;;;;10.63;2.42;;;;;;;;;;2440825;57;21151;-83
2022/10/08 02:40:49;;;;;;;7.18;2.95;;;;;;;;;;2220401;61;21111;-83
2022/10/08 02:43:19;;;;;;;9.55;3.00;;;;;;;;;;2441970;57;21075;-84
2022/10/08 02:45:50;;;;;;;7.18;2.75;;;;;;;;;;2440726;57;21140;-83
2022/10/08 02:48:20;;;;;;;13.43;3.10;;;;;;;;;;2220882;61;21619;-83
2022/10/08 02:50:50;;;;;;;7.62;2.65;;;;;;;;;;2440378;57;21164;-83
2022/10/08 02:53:17;;;;;;;12.73;3.30;;;;;;;;;;2413961;57;21064;-83
2022/10/08 02:55:49;;;;;;;9.10;3.70;;;;;;;;;;2220896;61;21112;-84
2022/10/08 02:58:17;;;;;;;5.57;2.55;;;;;;;;;;2221176;61;21087;-83
2022/10/08 03:00:54;;;;;;;12.45;3.67;;;;;;;;;;2220588;61;21100;-83
2022/10/08 03:03:23;;;;;;;12.10;3.35;;;;;;;;;;2221322;61;21096;-83
2022/10/08 03:05:51;;;;;;;9.80;2.62;;;;;;;;;;2221223;61;21139;-84
2022/10/08 03:08:18;;;;;;;14.27;3.03;;;;;;;;;;2221571;61;21135;-83
2022/10/08 03:10:45;;;;;;;12.77;3.08;;;;;;;;;;2221183;61;21099;-83
2022/10/08 03:13:13;;;;;;;13.80;3.00;;;;;;;;;;2441279;57;21087;-83
2022/10/08 03:15:40;;;;;;;7.60;3.17;;;;;;;;;;2441038;57;21108;-84
2022/10/08 03:18:09;;;;;;;13.07;3.40;;;;;;;;;;2221538;61;21119;-83
2022/10/08 03:20:39;;;;;;;9.65;3.08;;;;;;;;;;2221188;61;21064;-82
2022/10/08 03:23:06;;;;;;;8.07;2.78;;;;;;;;;;2221301;61;21099;-83
2022/10/08 03:25:33;;;;;;;11.10;3.53;;;;;;;;;;2441155;57;21219;-83
2022/10/08 03:28:00;;;;;;;9.80;3.28;;;;;;;;;;2221272;61;22272;-83
2022/10/08 03:30:27;;;;;;;14.05;3.47;;;;;;;;;;2221427;61;21124;-83
2022/10/08 03:32:54;;;;;;;11.18;3.20;;;;;;;;;;2221245;61;21164;-83
2022/10/08 03:35:21;;;;;;;12.05;2.67;;;;;;;;;;2441232;57;21148;-83
2022/10/08 03:37:48;;;;;;;8.63;2.75;;;;;;;;;;2441119;57;21160;-84
2022/10/08 03:40:15;;;;;;;10.48;3.00;;;;;;;;;;2221315;61;21140;-83
2022/10/08 03:42:42;;;;;;;10.38;2.92;;;;;;;;;;2440833;57;21088;-83
2022/10/08 03:45:10;;;;;;;8.88;3.10;;;;;;;;;;2441155;57;21103;-83
2022/10/08 03:47:36;;;;;;;10.07;3.62;;;;;;;;;;2221329;61;21080;-84
2022/10/08 03:50:04;;;;;;;10.57;3.30;;;;;;;;;;2221508;61;21101;-83
2022/10/08 03:52:31;;;;;;;11.98;3.65;;;;;;;;;;2220987;61;21132;-83
2022/10/08 03:54:58;;;;;;;11.07;3.25;;;;;;;;;;2221176;61;21104;-83
2022/10/08 03:57:25;;;;;;;12.50;3.12;;;;;;;;;;2221440;61;21084;-83
2022/10/08 03:59:52;;;;;;;11.65;2.85;;;;;;;;;;2221458;61;21163;-83
2022/10/08 04:02:19;;;;;;;12.88;3.60;;;;;;;;;;2440660;57;21072;-83
2022/10/08 04:04:46;;;;;;;14.18;3.72;;;;;;;;;;2221286;61;21080;-83
2022/10/08 04:07:13;;;;;;;17.77;4.50;;;;;;;;;;2441040;57;21163;-83
2022/10/08 04:09:40;;;;;;;8.70;2.90;;;;;;;;;;2441028;57;21171;-83
2022/10/08 04:12:07;;;;;;;11.12;3.30;;;;;;;;;;2220857;61;21160;-84
2022/10/08 04:14:34;;;;;;;11.25;3.55;;;;;;;;;;2221237;61;21151;-84
2022/10/08 04:17:01;;;;;;;14.60;3.70;;;;;;;;;;2441010;57;21075;-84
2022/10/08 04:19:28;;;;;;;10.68;3.47;;;;;;;;;;2440990;57;21560;-83
2022/10/08 04:21:55;;;;;;;12.10;3.40;;;;;;;;;;2221040;61;21594;-83
2022/10/08 04:24:22;;;;;;;10.73;3.12;;;;;;;;;;2221720;61;21174;-84
2022/10/08 04:26:49;;;;;;;16.92;3.85;;;;;;;;;;2221161;61;21170;-83
2022/10/08 04:29:16;;;;;;;8.57;3.60;;;;;;;;;;2221158;61;21080;-84
2022/10/08 04:31:43;;;;;;;12.35;3.20;;;;;;;;;;2221267;61;21144;-84
2022/10/08 04:34:10;;;;;;;7.47;2.90;;;;;;;;;;2221255;61;21143;-84
2022/10/08 04:36:38;;;;;;;10.00;3.97;;;;;;;;;;2440837;57;21115;-83
2022/10/08 04:39:05;;;;;;;11.05;2.80;;;;;;;;;;2441038;57;21223;-84
2022/10/08 04:41:32;;;;;;;11.23;3.05;;;;;;;;;;2440998;57;21132;-83
2022/10/08 04:44:00;;;;;;;11.20;3.22;;;;;;;;;;2221327;61;21651;-83
2022/10/08 04:46:27;;;;;;;9.40;3.53;;;;;;;;;;2441100;57;21138;-84
2022/10/08 04:48:55;;;;;;;8.80;3.30;;;;;;;;;;2221232;61;21143;-84
2022/10/08 04:51:22;;;;;;;10.90;3.08;;;;;;;;;;2220885;61;21139;-83
2022/10/08 04:53:50;;;;;;;7.35;2.78;;;;;;;;;;2220935;61;21075;-83
2022/10/08 04:56:18;;;;;;;8.50;3.12;;;;;;;;;;2221307;61;21084;-83
2022/10/08 04:58:45;;;;;;;7.95;3.08;;;;;;;;;;2220768;61;21136;-84
2022/10/08 05:01:14;;;;;;;12.85;3.08;;;;;;;;;;2221180;61;21091;-83
2022/10/08 05:03:42;;;;;;;11.43;3.20;;;;;;;;;;2220872;61;21092;-83
2022/10/08 05:06:10;;;;;;;10.35;4.12;;;;;;;;;;2221180;61;21088;-84
2022/10/08 05:08:37;;;;;;;11.35;3.17;;;;;;;;;;2220883;61;21127;-84
2022/10/08 05:11:04;;;;;;;14.77;3.45;;;;;;;;;;2440790;57;21144;-84
2022/10/08 05:13:31;;;;;;;10.85;3.47;;;;;;;;;;2440649;57;21083;-84
2022/10/08 05:16:02;;;;;;;9.18;3.40;;;;;;;;;;2440766;57;21092;-83
2022/10/08 05:18:29;;;;;;;11.90;4.20;;;;;;;;;;2440756;57;21167;-83
2022/10/08 05:20:56;;;;;;;12.15;4.22;;;;;;;;;;2221077;61;21148;-84
2022/10/08 05:23:22;;;;;;;8.30;3.50;;;;;;;;;;2440277;56;21119;-83
2022/10/08 05:25:49;;;;;;;8.68;3.17;;;;;;;;;;2220913;61;21076;-84
2022/10/08 05:28:16;;;;;;;12.85;3.40;;;;;;;;;;2439895;57;21189;-84
2022/10/08 05:30:43;;;;;;;12.75;3.72;;;;;;;;;;2440626;57;21159;-84
2022/10/08 05:33:10;;;;;;;10.73;3.55;;;;;;;;;;2440781;57;21068;-84
2022/10/08 05:35:37;;;;;;;9.55;3.58;;;;;;;;;;2440858;57;21156;-84
2022/10/08 05:38:04;;;;;;;13.90;4.10;;;;;;;;;;2440707;57;21167;-83
2022/10/08 05:40:31;;;;;;;14.98;3.50;;;;;;;;;;2221088;61;21083;-83
2022/10/08 05:42:58;;;;;;;10.38;3.30;;;;;;;;;;2440861;57;21084;-84
2022/10/08 05:45:25;;;;;;;16.65;3.80;;;;;;;;;;2220682;61;21686;-83
2022/10/08 05:47:52;;;;;;;13.43;4.12;;;;;;;;;;2441025;57;21151;-83
2022/10/08 05:50:19;;;;;;;10.90;4.10;;;;;;;;;;2440958;57;21103;-84
2022/10/08 05:52:47;;;;;;;11.07;3.45;;;;;;;;;;2440879;57;21151;-83
2022/10/08 05:55:14;;;;;;;12.77;4.22;;;;;;;;;;2221059;61;21714;-83
2022/10/08 05:57:41;;;;;;;8.82;3.22;;;;;;;;;;2221079;61;21084;-84
2022/10/08 06:00:09;;;;;;;12.75;4.32;;;;;;;;;;2440568;57;21100;-84
2022/10/08 06:02:36;;;;;;;14.60;3.85;;;;;;;;;;2440843;57;21091;-83
2022/10/08 06:05:03;;;;;;;15.80;4.50;;;;;;;;;;2221419;61;21080;-83
2022/10/08 06:07:30;;;;;;;15.52;4.18;;;;;;;;;;2220863;61;21120;-84
2022/10/08 06:09:57;;;;;;;11.43;3.80;;;;;;;;;;2221092;61;21083;-84
2022/10/08 06:12:24;;;;;;;14.80;4.43;;;;;;;;;;2220702;61;21100;-83
2022/10/08 06:14:51;;;;;;;15.20;3.95;;;;;;;;;;2440522;57;21738;-84
2022/10/08 06:17:18;;;;;;;12.60;3.90;;;;;;;;;;2221228;61;21208;-83
2022/10/08 06:19:45;;;;;;;11.35;3.92;;;;;;;;;;2440791;57;21124;-84
2022/10/08 06:22:12;;;;;;;16.15;3.78;;;;;;;;;;2221017;61;21087;-83
2022/10/08 06:24:39;;;;;;;14.98;4.10;;;;;;;;;;2221193;61;21092;-83
2022/10/08 06:27:06;;;;;;;17.48;4.37;;;;;;;;;;2221085;61;21135;-83
2022/10/08 06:29:32;;;;;;;10.88;4.28;;;;;;;;;;2220902;61;21147;-83
2022/10/08 06:31:59;;;;;;;10.88;4.07;;;;;;;;;;2220909;61;21079;-84
2022/10/08 06:34:26;;;;;;;13.00;4.10;;;;;;;;;;2440830;57;21205;-83
2022/10/08 06:36:53;;;;;;;16.23;4.20;;;;;;;;;;2440897;57;21091;-83
2022/10/08 06:39:20;;;;;;;8.07;3.47;;;;;;;;;;2221288;61;21140;-83
2022/10/08 06:41:47;;;;;;;10.40;4.47;;;;;;;;;;2440952;57;21124;-83
2022/10/08 06:44:14;;;;;;;14.23;4.22;;;;;;;;;;2221321;61;21595;-83
2022/10/08 06:46:42;;;;;;;11.65;3.95;;;;;;;;;;2441083;57;21163;-83
2022/10/08 06:49:10;;;;;;;17.95;4.22;;;;;;;;;;2221152;61;21124;-84
2022/10/08 06:51:37;;;;;;;11.30;3.65;;;;;;;;;;2220987;61;21139;-83
2022/10/08 06:54:04;;;;;;;13.48;3.62;;;;;;;;;;2221163;61;21108;-83
2022/10/08 06:56:31;;;;;;;12.45;3.78;;;;;;;;;;2441173;57;21147;-83
2022/10/08 06:58:58;;;;;;;7.37;3.42;;;;;;;;;;2221418;61;21108;-83
2022/10/08 07:01:26;;;;;;;15.27;3.70;;;;;;;;;;2221226;61;21080;-83
2022/10/08 07:03:53;;;;;;;11.05;3.60;;;;;;;;;;2221358;61;21103;-83
2022/10/08 07:06:21;;;;;;;10.88;4.07;;;;;;;;;;2441155;56;21104;-84
2022/10/08 07:08:51;;;;;;;13.15;4.00;;;;;;;;;;2440873;57;21092;-83
2022/10/08 07:11:18;;;;;;;9.05;3.53;;;;;;;;;;2221016;61;21172;-83
2022/10/08 07:13:46;;;;;;;11.82;3.83;;;;;;;;;;2221303;61;21123;-83
2022/10/08 07:16:14;;;;;;;10.10;3.80;;;;;;;;;;2440870;57;21068;-84
2022/10/08 07:18:41;;;;;;;11.68;3.40;;;;;;;;;;2221244;61;21215;-83
2022/10/08 07:21:09;;;;;;;15.90;5.12;;;;;;;;;;2220903;61;21099;-83
2022/10/08 07:23:36;;;;;;;15.95;4.00;;;;;;;;;;2440718;57;21644;-83
2022/10/08 07:26:04;;;;;;;12.07;3.55;;;;;;;;;;2220548;61;21072;-83
2022/10/08 07:28:32;;;;;;;12.48;3.75;;;;;;;;;;2221091;61;21103;-83
2022/10/08 07:31:02;;;;;;;8.50;3.30;;;;;;;;;;2221046;61;21092;-83
2022/10/08 07:33:29;;;;;;;15.60;3.87;;;;;;;;;;2221593;61;21083;-84
2022/10/08 07:36:05;;;;;;;8.55;3.12;;;;;;;;;;2440799;57;21124;-83
2022/10/08 07:38:31;;;;;;;11.20;3.22;;;;;;;;;;2221334;61;21099;-83
2022/10/08 07:40:58;;;;;;;11.32;3.55;;;;;;;;;;2221375;61;21080;-84
2022/10/08 07:43:25;;;;;;;9.05;3.20;;;;;;;;;;2221343;61;21458;-83
2022/10/08 07:45:52;;;;;;;17.05;4.15;;;;;;;;;;2221380;61;21124;-83
2022/10/08 07:48:19;;;;;;;12.73;3.78;;;;;;;;;;2441119;57;21080;-83
2022/10/08 07:50:46;;;;;;;10.02;3.33;;;;;;;;;;2440735;57;21088;-83
2022/10/08 07:53:13;;;;;;;12.60;3.75;;;;;;;;;;2441033;57;21149;-84
2022/10/08 07:55:40;;;;;;;8.38;3.30;;;;;;;;;;2221232;61;21171;-84
2022/10/08 07:58:07;;;;;;;8.40;3.40;;;;;;;;;;2221358;61;21111;-82
2022/10/08 08:00:34;;;;;;;9.52;3.15;;;;;;;;;;2440757;57;21088;-81
2022/10/08 08:03:01;;;;;;;12.48;3.00;;;;;;;;;;2221306;61;21600;-83
2022/10/08 08:05:28;;;;;;;12.02;3.95;;;;;;;;;;2440886;56;21149;-84
2022/10/08 08:07:55;;;;;;;8.95;3.10;;;;;;;;;;2441187;57;21575;-84
2022/10/08 08:10:22;;;;;;;10.07;3.40;;;;;;;;;;2221119;61;21643;-84
2022/10/08 08:12:49;;;;;;;11.60;3.08;;;;;;;;;;2440869;57;21695;-83
2022/10/08 08:15:16;;;;;;;9.45;3.45;;;;;;;;;;2440879;57;21659;-83
2022/10/08 08:17:43;;;;;;;6.53;2.80;;;;;;;;;;2441318;57;21160;-83
2022/10/08 08:20:10;;;;;;;6.97;2.78;;;;;;;;;;2441169;57;21152;-83
2022/10/08 08:22:37;;;;;;;8.38;3.35;;;;;;;;;;2440968;57;22174;-83
2022/10/08 08:25:05;;;;;;;8.27;2.65;;;;;;;;;;2440913;57;21149;-83
2022/10/08 08:27:32;;;;;;;6.95;2.85;;;;;;;;;;2441106;57;21687;-83
2022/10/08 08:30:00;;;;;;;10.32;3.05;;;;;;;;;;2441178;57;21107;-84
2022/10/08 08:32:27;;;;;;;19.35;4.07;;;;;;;;;;2221179;61;21143;-83
2022/10/08 08:34:54;;;;;;;7.68;2.78;;;;;;;;;;2221233;61;21119;-83
2022/10/08 08:37:21;;;;;;;9.82;3.12;;;;;;;;;;2440992;57;21096;-84
2022/10/08 08:39:48;;;;;;;10.48;2.55;;;;;;;;;;2221479;61;21088;-83
2022/10/08 08:42:20;;;;;;;9.02;2.60;;;;;;;;;;2440994;57;21168;-83
2022/10/08 08:44:49;;;;;;;8.40;2.73;;;;;;;;;;2221768;61;21104;-83
2022/10/08 08:47:18;;;;;;;8.45;2.40;;;;;;;;;;2221465;61;21080;-83
2022/10/08 08:49:47;;;;;;;8.20;2.45;;;;;;;;;;2221187;61;21096;-83
2022/10/08 08:52:16;;;;;;;13.70;3.45;;;;;;;;;;2440720;57;21153;-84
2022/10/08 08:54:43;;;;;;;9.00;2.90;;;;;;;;;;2221198;61;21132;-83
2022/10/08 08:57:20;;;;;;;7.53;2.60;;;;;;;;;;2221354;61;21656;-83
2022/10/08 08:59:47;;;;;;;6.53;2.12;;;;;;;;;;2221060;61;21223;-84
2022/10/08 09:02:18;;;;;;;10.13;2.30;;;;;;;;;;2440791;57;21107;-84
2022/10/08 09:04:47;;;;;;;10.80;2.72;;;;;;;;;;2440953;57;21080;-83
2022/10/08 09:07:16;;;;;;;7.75;2.28;;;;;;;;;;2221065;61;21235;-84
2022/10/08 09:09:44;;;;;;;9.90;3.28;;;;;;;;;;2440622;57;21084;-84
2022/10/08 09:12:15;;;;;;;9.93;2.72;;;;;;;;;;2440847;57;21600;-84
2022/10/08 09:14:44;;;;;;;7.05;2.03;;;;;;;;;;2440664;57;21576;-84
2022/10/08 09:17:14;;;;;;;8.00;2.00;;;;;;;;;;2440910;57;21128;-84
2022/10/08 09:19:41;;;;;;;12.15;2.10;;;;;;;;;;2441131;57;21635;-84
2022/10/08 09:22:17;;;;;;;11.57;1.90;;;;;;;;;;2220719;61;21147;-83
2022/10/08 09:24:44;;;;;;;9.15;1.83;;;;;;;;;;2221022;61;21171;-83
2022/10/08 09:27:13;;;;;;;9.57;1.80;;;;;;;;;;2221281;61;21584;-83
2022/10/08 09:29:40;;;;;;;8.07;2.15;;;;;;;;;;2220943;61;21171;-83
2022/10/08 09:32:14;;;;;;;7.80;2.00;;;;;;;;;;2221283;61;21117;-83
2022/10/08 09:34:42;;;;;;;8.25;2.50;;;;;;;;;;2440689;57;21095;-83
2022/10/08 09:37:15;;;;;;;7.43;1.62;;;;;;;;;;2440541;57;21174;-83
2022/10/08 09:40:05;;;;;;;7.62;2.00;;;;;;;;;;2440214;57;21136;-82
2022/10/08 09:42:32;;;;;;;8.68;2.10;;;;;;;;;;2220125;61;21083;-83
2022/10/08 09:45:02;;;;;;;7.70;2.12;;;;;;;;;;2220700;61;21128;-84
2022/10/08 09:47:30;;;;;;;7.53;2.22;;;;;;;;;;2220911;61;21164;-84
2022/10/08 09:50:02;;;;;;;7.43;1.98;;;;;;;;;;2440477;57;21173;-84
2022/10/08 09:52:29;;;;;;;7.47;2.65;;;;;;;;;;2440790;57;21056;-84
2022/10/08 09:54:58;;;;;;;11.80;2.15;;;;;;;;;;2220757;61;21576;-84
2022/10/08 09:57:25;;;;;;;8.43;2.05;;;;;;;;;;2220694;61;21105;-84
2022/10/08 09:59:54;;;;;;;6.82;2.05;;;;;;;;;;2440723;57;21588;-83
2022/10/08 10:02:28;;;;;;;5.68;1.77;;;;;;;;;;2220991;61;21091;-83
2022/10/08 10:04:56;;;;;;;8.30;2.00;;;;;;;;;;2221220;61;21590;-83
2022/10/08 10:07:23;;;;;;;6.30;1.80;;;;;;;;;;2221085;61;21143;-84
2022/10/08 10:09:52;;;;;;;4.12;1.55;;;;;;;;;;2439946;57;21140;-83
2022/10/08 10:12:24;;;;;;;7.30;1.50;;;;;;;;;;2439055;57;21706;-84
2022/10/08 10:14:53;;;;;;;11.25;1.80;;;;;;;;;;2440920;57;21076;-84
2022/10/08 10:17:25;;;;;;;10.10;2.15;;;;;;;;;;2221141;61;21083;-84
2022/10/08 10:19:55;;;;;;;10.70;2.40;;;;;;;;;;2440943;57;21072;-84
2022/10/08 10:22:25;;;;;;;7.47;1.45;;;;;;;;;;2440308;57;21143;-84
2022/10/08 10:24:56;;;;;;;7.70;1.87;;;;;;;;;;2440693;57;21204;-83
2022/10/08 10:27:29;;;;;;;5.15;1.20;;;;;;;;;;2220990;61;21087;-84
2022/10/08 10:30:02;;;;;;;5.53;1.23;;;;;;;;;;2441230;57;21156;-83
2022/10/08 10:32:32;;;;;;;4.47;1.43;;;;;;;;;;2441072;57;21144;-84
2022/10/08 10:35:03;;;;;;;3.20;1.15;;;;;;;;;;2440707;57;21328;-84
2022/10/08 10:37:34;;;;;;;5.45;1.20;;;;;;;;;;2441011;57;21087;-84
2022/10/08 10:40:13;;;;;;;2.33;0.98;;;;;;;;;;2440875;57;21084;-84
2022/10/08 10:42:47;;;;;;;5.10;1.40;;;;;;;;;;2220809;61;21088;-83
2022/10/08 10:45:18;;;;;;;7.15;1.80;;;;;;;;;;2441002;57;21087;-84
2022/10/08 10:47:45;;;;;;;4.32;1.50;;;;;;;;;;2221053;61;21156;-84
2022/10/08 10:50:13;;;;;;;4.55;1.20;;;;;;;;;;2220981;61;21088;-84
2022/10/08 10:52:47;;;;;;;5.40;1.37;;;;;;;;;;2221045;61;21151;-84
2022/10/08 10:55:20;;;;;;;4.00;1.20;;;;;;;;;;2440968;57;21084;-83
2022/10/08 10:57:58;;;;;;;3.47;1.20;;;;;;;;;;2440904;57;21170;-83
2022/10/08 11:00:27;;;;;;;4.78;1.77;;;;;;;;;;2220885;61;21091;-84
2022/10/08 11:02:57;;;;;;;5.85;1.35;;;;;;;;;;2221377;61;21148;-83
2022/10/08 11:05:25;;;;;;;4.47;1.37;;;;;;;;;;2221075;61;21071;-84
2022/10/08 11:08:11;;;;;;;6.32;1.50;;;;;;;;;;2440988;56;21092;-84
2022/10/08 11:10:44;;;;;;;4.82;1.83;;;;;;;;;;2440627;57;21124;-84
2022/10/08 11:13:16;;;;;;;8.95;1.83;;;;;;;;;;2221214;61;21107;-85
2022/10/08 11:15:46;;;;;;;10.63;1.70;;;;;;;;;;2221224;61;21140;-84
2022/10/08 11:18:17;;;;;;;5.50;1.42;;;;;;;;;;2221206;61;21103;-84
2022/10/08 11:20:49;;;;;;;5.00;1.35;;;;;;;;;;2440529;57;21191;-83
2022/10/08 11:23:24;;;;;;;1.67;0.80;;;;;;;;;;2220846;61;21091;-84
2022/10/08 11:25:55;;;;;;;5.70;1.20;;;;;;;;;;2221250;61;21084;-84
2022/10/08 11:28:27;;;;;;;3.30;1.33;;;;;;;;;;2221135;61;21087;-84
2022/10/08 11:30:59;;;;;;;4.93;1.10;;;;;;;;;;2440799;57;21096;-85
2022/10/08 11:33:27;;;;;;;3.35;0.80;;;;;;;;;;2220902;61;21095;-83
2022/10/08 11:36:01;;;;;;;3.45;0.90;;;;;;;;;;2221117;61;21096;-84
2022/10/08 11:38:31;;;;;;;4.75;0.80;;;;;;;;;;2221203;61;21076;-84
2022/10/08 11:41:06;;;;;;;2.65;0.90;;;;;;;;;;2220766;61;21088;-84
2022/10/08 11:43:36;;;;;;;4.18;1.23;;;;;;;;;;2221076;61;21114;-84
2022/10/08 11:46:28;;;;;;;4.00;1.75;;;;;;;;;;2221074;61;21072;-84
2022/10/08 11:48:56;;;;;;;2.83;1.02;;;;;;;;;;2221124;61;21096;-84
2022/10/08 11:51:36;;;;;;;6.62;1.27;;;;;;;;;;2440562;57;21675;-83
2022/10/08 11:54:15;;;;;;;4.68;0.93;;;;;;;;;;2220748;61;21083;-86
2022/10/08 11:56:44;;;;;;;2.72;0.95;;;;;;;;;;2220530;61;21243;-84
2022/10/08 11:59:24;;;;;;;2.70;0.80;;;;;;;;;;2220673;61;21591;-83
2022/10/08 12:01:53;;;;;;;1.23;0.50;;;;;;;;;;2440397;57;21151;-84
2022/10/08 12:04:21;;;;;;;3.65;0.55;;;;;;;;;;2220730;61;21136;-84
2022/10/08 12:06:59;;;;;;;1.62;0.77;;;;;;;;;;2440265;56;21167;-84
2022/10/08 12:09:58;;;;;;;2.25;0.73;;;;;;;;;;2220939;61;21159;-84
2022/10/08 12:12:25;;;;;;;0.93;0.60;;;;;;;;;;2440128;57;21167;-85
2022/10/08 12:14:52;;;;;;;1.65;0.77;;;;;;;;;;2440541;57;22245;-84
2022/10/08 12:17:19;;;;;;;0.80;0.60;;;;;;;;;;2440477;57;21108;-84
2022/10/08 12:20:11;;;;;;;0.88;0.50;;;;;;;;;;2440326;57;21151;-84
2022/10/08 12:22:42;;;;;;;1.17;0.60;;;;;;;;;;2440523;57;21665;-84
2022/10/08 12:25:30;;;;;;;1.05;0.70;;;;;;;;;;2220677;61;21576;-84
2022/10/08 12:28:37;;;;;;;0.90;0.70;;;;;;;;;;2440626;57;21124;-84
2022/10/08 12:31:16;;;;;;;0.82;0.50;;;;;;;;;;2440610;57;21179;-83
2022/10/08 12:33:43;;;;;;;2.10;0.75;;;;;;;;;;2220442;61;21087;-85
2022/10/08 12:36:16;;;;;;;0.95;0.70;;;;;;;;;;2220670;61;21103;-85
2022/10/08 12:38:49;;;;;;;1.55;0.60;;;;;;;;;;2220615;61;21139;-83
2022/10/08 12:41:20;;;;;;;2.10;0.80;;;;;;;;;;2220591;61;21163;-85
2022/10/08 12:43:51;;;;;;;2.40;0.80;;;;;;;;;;2221200;61;21120;-84
2022/10/08 12:46:25;;;;;;;4.80;1.02;;;;;;;;;;2440712;57;21642;-85
2022/10/08 12:48:51;;;;;;;;;;;;;;;;;;2444373;57;21136;-83
2022/10/08 12:51:25;;;;;;;1.80;0.73;;;;;;;;;;2220656;61;20055;-84
2022/10/08 12:53:52;;;;;;;2.25;0.80;;;;;;;;;;2220894;61;21179;-83
2022/10/08 12:56:26;;;;;;;3.67;0.98;;;;;;;;;;2439629;57;21146;-84
2022/10/08 12:58:54;;;;;;;3.05;1.05;;;;;;;;;;2220513;61;21159;-84
2022/10/08 13:01:21;;;;;;;2.42;1.00;;;;;;;;;;2440771;57;21156;-84
2022/10/08 13:04:06;;;;;;;2.78;1.27;;;;;;;;;;2220697;61;21111;-85
2022/10/08 13:06:33;;;;;;;5.22;0.98;;;;;;;;;;2220865;61;21112;-84
2022/10/08 13:09:00;;;;;;;2.25;0.90;;;;;;;;;;2220552;61;21099;-85
2022/10/08 13:11:27;;;;;;;2.42;1.05;;;;;;;;;;2220489;61;21116;-85
2022/10/08 13:13:54;;;;;;;4.47;1.17;;;;;;;;;;2440348;57;21088;-85
2022/10/08 13:16:22;;;;;;;3.97;1.35;;;;;;;;;;2220881;61;21088;-84
2022/10/08 13:18:52;;;;;;;5.18;2.12;;;;;;;;;;2220919;61;21083;-85
2022/10/08 13:21:36;;;;;;;8.90;1.80;;;;;;;;;;2220697;61;21176;-84
2022/10/08 13:24:02;;;;;;;;;;;;;;;;;;2444160;57;21096;-84
2022/10/08 13:26:40;;;;;;;3.20;1.10;;;;;;;;;;2440672;57;20106;-85
2022/10/08 13:29:26;;;;;;;6.35;1.08;;;;;;;;;;2220958;61;21112;-84
2022/10/08 13:31:53;;;;;;;5.10;0.98;;;;;;;;;;2440455;57;21071;-84
2022/10/08 13:34:21;;;;;;;4.57;0.90;;;;;;;;;;2440779;57;21183;-84
2022/10/08 13:36:50;;;;;;;5.05;1.02;;;;;;;;;;2440614;57;21103;-85
2022/10/08 13:39:22;;;;;;;4.75;1.20;;;;;;;;;;2220758;61;21084;-84
2022/10/08 13:41:55;;;;;;;4.55;1.05;;;;;;;;;;2440472;57;21088;-84
2022/10/08 13:44:22;;;;;;;4.57;0.85;;;;;;;;;;2440903;57;21151;-85
2022/10/08 13:46:49;;;;;;;5.28;1.27;;;;;;;;;;2440338;57;21158;-83
2022/10/08 13:49:20;;;;;;;4.82;1.27;;;;;;;;;;2440833;57;21087;-85
2022/10/08 13:51:47;;;;;;;4.20;1.17;;;;;;;;;;2440743;56;21072;-85
2022/10/08 13:54:16;;;;;;;7.35;1.20;;;;;;;;;;2221106;61;21667;-83
2022/10/08 13:56:43;;;;;;;3.85;1.02;;;;;;;;;;2220808;61;21144;-84
2022/10/08 13:59:11;;;;;;;3.60;1.20;;;;;;;;;;2220762;61;21087;-84
2022/10/08 14:01:38;;;;;;;4.43;1.10;;;;;;;;;;2440610;57;21111;-84
2022/10/08 14:04:05;;;;;;;4.05;0.90;;;;;;;;;;2221078;61;21099;-84
2022/10/08 14:06:32;;;;;;;5.95;1.27;;;;;;;;;;2440908;57;21104;-84
2022/10/08 14:08:59;;;;;;;1.42;0.57;;;;;;;;;;2440493;56;21076;-85
2022/10/08 14:11:26;;;;;;;5.30;1.60;;;;;;;;;;2440178;57;21091;-85
2022/10/08 14:13:53;;;;;;;6.18;1.10;;;;;;;;;;2440561;57;21144;-85
2022/10/08 14:16:20;;;;;;;3.72;0.93;;;;;;;;;;2220653;61;21130;-85
2022/10/08 14:18:47;;;;;;;5.25;1.10;;;;;;;;;;2220580;61;21151;-84
2022/10/08 14:21:15;;;;;;;5.32;1.15;;;;;;;;;;2220583;61;21088;-83
2022/10/08 14:23:43;;;;;;;4.43;1.00;;;;;;;;;;2221043;61;21179;-84
2022/10/08 14:26:11;;;;;;;3.12;0.93;;;;;;;;;;2220757;61;21087;-84
2022/10/08 14:28:38;;;;;;;2.55;0.80;;;;;;;;;;2220843;61;21085;-84
2022/10/08 14:31:05;;;;;;;6.43;1.17;;;;;;;;;;2220408;61;21088;-84
2022/10/08 14:33:32;;;;;;;3.55;1.35;;;;;;;;;;2220987;61;21189;-84
2022/10/08 14:35:59;;;;;;;3.65;1.12;;;;;;;;;;2440401;57;21107;-84
2022/10/08 14:38:31;;;;;;;2.62;0.82;;;;;;;;;;2440649;57;21103;-84
2022/10/08 14:40:59;;;;;;;3.70;1.10;;;;;;;;;;2440478;57;21180;-85
2022/10/08 14:43:26;;;;;;;5.22;1.05;;;;;;;;;;2440522;57;21087;-84
2022/10/08 14:45:53;;;;;;;4.82;1.10;;;;;;;;;;2440541;57;21080;-84
2022/10/08 14:48:20;;;;;;;7.90;1.45;;;;;;;;;;2220866;61;21155;-85
2022/10/08 14:50:47;;;;;;;7.28;1.40;;;;;;;;;;2220476;61;21627;-84